createdAt,value
2022-10-06T00:01:39.908Z,67.34
2022-10-06T00:04:08.315Z,67.49
2022-10-06T00:06:36.588Z,67.51
2022-10-06T00:09:05.647Z,67.53
2022-10-06T00:11:34.346Z,67.49
2022-10-06T00:14:02.710Z,67.50
2022-10-06T00:16:31.021Z,67.90
2022-10-06T00:19:00.670Z,67.71
2022-10-06T00:21:29.133Z,67.91
2022-10-06T00:23:57.946Z,67.90
2022-10-06T00:26:27.187Z,67.85
2022-10-06T00:28:55.519Z,67.80
2022-10-06T00:31:24.036Z,67.84
2022-10-06T00:33:52.429Z,67.85
2022-10-06T00:36:23.272Z,67.77
2022-10-06T00:38:51.955Z,67.83
2022-10-06T00:41:20.263Z,67.90
2022-10-06T00:43:52.788Z,67.79
2022-10-06T00:46:36.527Z,67.66
2022-10-06T00:49:13.492Z,67.67
2022-10-06T00:51:47.301Z,67.77
2022-10-06T00:54:16.430Z,67.83
2022-10-06T00:56:46.016Z,67.83
2022-10-06T00:59:16.419Z,68.05
2022-10-06T01:01:51.041Z,68.24
2022-10-06T01:04:20.028Z,67.86
2022-10-06T01:06:54.008Z,67.94
2022-10-06T01:09:23.961Z,68.05
2022-10-06T01:11:55.390Z,68.11
2022-10-06T01:14:26.203Z,67.94
2022-10-06T01:17:00.857Z,68.04
2022-10-06T01:19:37.513Z,68.18
2022-10-06T01:22:08.901Z,67.93
2022-10-06T01:24:38.777Z,68.28
2022-10-06T01:27:09.011Z,68.22
2022-10-06T01:29:38.303Z,68.43
2022-10-06T01:32:06.901Z,68.52
2022-10-06T01:34:35.278Z,68.50
2022-10-06T01:37:03.576Z,68.44
2022-10-06T01:39:31.949Z,68.60
2022-10-06T01:42:01.768Z,68.98
2022-10-06T01:44:30.329Z,68.93
2022-10-06T01:46:58.692Z,69.19
2022-10-06T01:49:26.877Z,69.39
2022-10-06T01:51:55.345Z,69.53
2022-10-06T01:54:23.845Z,69.81
2022-10-06T01:56:52.145Z,69.65
2022-10-06T01:59:24.592Z,69.73
2022-10-06T02:01:53.796Z,70.11
2022-10-06T02:04:22.316Z,69.97
2022-10-06T02:06:51.570Z,70.13
2022-10-06T02:09:19.997Z,70.28
2022-10-06T02:11:48.286Z,70.39
2022-10-06T02:14:18.092Z,70.45
2022-10-06T02:16:47.784Z,70.67
2022-10-06T02:19:16.261Z,70.38
2022-10-06T02:21:44.702Z,70.62
2022-10-06T02:24:13.027Z,70.80
2022-10-06T02:26:41.364Z,70.83
2022-10-06T02:29:09.892Z,70.97
2022-10-06T02:31:38.293Z,71.09
2022-10-06T02:34:07.992Z,71.20
2022-10-06T02:36:36.519Z,71.46
2022-10-06T02:39:06.404Z,71.55
2022-10-06T02:41:34.650Z,71.95
2022-10-06T02:44:05.221Z,71.88
2022-10-06T02:46:33.862Z,72.34
2022-10-06T02:49:02.810Z,72.49
2022-10-06T02:51:32.782Z,72.95
2022-10-06T02:54:02.013Z,73.27
2022-10-06T02:56:30.231Z,73.50
2022-10-06T02:58:58.628Z,73.66
2022-10-06T03:01:33.254Z,73.80
2022-10-06T03:04:09.247Z,73.63
2022-10-06T03:06:39.091Z,73.68
2022-10-06T03:09:39.751Z,73.51
2022-10-06T03:12:10.192Z,73.44
2022-10-06T03:14:44.849Z,73.56
2022-10-06T03:17:13.521Z,73.67
2022-10-06T03:19:48.452Z,73.55
2022-10-06T03:22:18.178Z,73.59
2022-10-06T03:24:53.563Z,73.59
2022-10-06T03:27:23.032Z,73.56
2022-10-06T03:29:54.205Z,73.49
2022-10-06T03:32:25.171Z,73.61
2022-10-06T03:34:54.300Z,73.49
2022-10-06T03:37:24.217Z,73.90
2022-10-06T03:39:52.922Z,73.82
2022-10-06T03:42:21.562Z,73.81
2022-10-06T03:44:50.221Z,73.64
2022-10-06T03:47:19.177Z,73.77
2022-10-06T03:49:48.231Z,73.72
2022-10-06T03:52:21.177Z,73.92
2022-10-06T03:54:53.350Z,74.19
2022-10-06T03:57:23.193Z,74.15
2022-10-06T03:59:51.799Z,74.27
2022-10-06T04:02:20.315Z,74.23
2022-10-06T04:04:48.771Z,74.56
2022-10-06T04:07:17.024Z,74.69
2022-10-06T04:09:46.968Z,74.84
2022-10-06T04:12:18.379Z,74.97
2022-10-06T04:14:46.731Z,75.07
2022-10-06T04:17:15.273Z,75.15
2022-10-06T04:19:43.685Z,75.31
2022-10-06T04:22:11.959Z,75.36
2022-10-06T04:24:40.842Z,75.83
2022-10-06T04:27:26.572Z,75.73
2022-10-06T04:30:15.754Z,75.61
2022-10-06T04:32:45.729Z,75.80
2022-10-06T04:35:15.385Z,75.84
2022-10-06T04:37:43.973Z,76.06
2022-10-06T04:40:12.648Z,75.88
2022-10-06T04:42:41.263Z,75.84
2022-10-06T04:45:15.034Z,75.89
2022-10-06T04:47:44.334Z,75.78
2022-10-06T04:50:13.425Z,75.58
2022-10-06T04:53:01.537Z,75.65
2022-10-06T04:55:29.889Z,75.68
2022-10-06T04:57:58.539Z,75.98
2022-10-06T05:00:28.631Z,76.12
2022-10-06T05:02:58.174Z,76.05
2022-10-06T05:05:26.604Z,76.06
2022-10-06T05:07:56.742Z,76.55
2022-10-06T05:10:25.967Z,76.56
2022-10-06T05:12:54.922Z,76.95
2022-10-06T05:15:29.135Z,77.82
2022-10-06T05:17:59.047Z,78.12
2022-10-06T05:20:27.422Z,78.42
2022-10-06T05:22:55.926Z,78.48
2022-10-06T05:25:27.257Z,78.63
2022-10-06T05:27:55.638Z,78.88
2022-10-06T05:30:23.960Z,78.80
2022-10-06T05:32:52.661Z,78.78
2022-10-06T05:35:22.683Z,78.63
2022-10-06T05:37:51.233Z,78.32
2022-10-06T05:40:19.828Z,78.32
2022-10-06T05:42:48.619Z,78.46
2022-10-06T05:45:17.808Z,78.73
2022-10-06T05:47:46.240Z,78.42
2022-10-06T05:50:15.942Z,78.37
2022-10-06T05:52:45.537Z,79.05
2022-10-06T05:55:14.209Z,79.22
2022-10-06T05:57:42.831Z,79.15
2022-10-06T06:00:12.505Z,79.18
2022-10-06T06:02:46.250Z,79.09
2022-10-06T06:05:15.826Z,79.20
2022-10-06T06:07:45.591Z,79.13
2022-10-06T06:10:14.077Z,78.98
2022-10-06T06:12:42.462Z,78.66
2022-10-06T06:15:48.762Z,78.51
2022-10-06T06:18:17.207Z,78.61
2022-10-06T06:20:46.003Z,78.73
2022-10-06T06:23:15.702Z,78.98
2022-10-06T06:25:44.181Z,79.21
2022-10-06T06:28:13.043Z,79.53
2022-10-06T06:30:41.508Z,79.70
2022-10-06T06:33:10.811Z,79.79
2022-10-06T06:35:39.220Z,79.94
2022-10-06T06:38:11.771Z,80.37
2022-10-06T06:40:42.991Z,80.22
2022-10-06T06:43:13.448Z,80.73
2022-10-06T06:46:04.240Z,80.42
2022-10-06T06:48:56.869Z,80.64
2022-10-06T06:51:25.478Z,80.19
2022-10-06T06:53:54.717Z,80.38
2022-10-06T06:56:24.448Z,80.38
2022-10-06T06:58:52.763Z,80.07
2022-10-06T07:01:24.378Z,79.96
2022-10-06T07:03:58.078Z,80.68
2022-10-06T07:06:31.927Z,81.06
2022-10-06T07:09:03.715Z,81.31
2022-10-06T07:11:35.436Z,81.39
2022-10-06T07:14:10.209Z,81.95
2022-10-06T07:16:56.625Z,82.01
2022-10-06T07:19:52.572Z,82.28
2022-10-06T07:22:41.264Z,82.42
2022-10-06T07:25:25.777Z,82.76
2022-10-06T07:28:03.991Z,83.00
2022-10-06T07:30:40.989Z,83.29
2022-10-06T07:33:14.606Z,83.54
2022-10-06T07:35:44.942Z,83.88
2022-10-06T07:38:14.788Z,84.04
2022-10-06T07:41:14.568Z,84.74
2022-10-06T07:43:37.955Z,84.17
2022-10-06T07:46:11.489Z,83.65
2022-10-06T07:48:44.535Z,83.14
2022-10-06T07:51:15.910Z,83.10
2022-10-06T07:53:46.764Z,82.24
2022-10-06T07:56:21.918Z,81.56
2022-10-06T07:58:56.020Z,81.41
2022-10-06T08:01:25.575Z,80.77
2022-10-06T08:03:54.233Z,81.03
2022-10-06T08:06:24.537Z,80.83
2022-10-06T08:08:53.835Z,80.29
2022-10-06T08:11:23.998Z,80.10
2022-10-06T08:13:54.183Z,80.36
2022-10-06T08:16:24.910Z,80.18
2022-10-06T08:18:55.301Z,80.21
2022-10-06T08:21:27.088Z,79.91
2022-10-06T08:23:56.983Z,79.84
2022-10-06T08:26:27.676Z,79.25
2022-10-06T08:29:03.361Z,79.26
2022-10-06T08:31:33.102Z,79.68
2022-10-06T08:34:01.511Z,80.37
2022-10-06T08:36:32.454Z,79.78
2022-10-06T08:39:01.818Z,79.47
2022-10-06T08:41:40.283Z,78.53
2022-10-06T08:44:25.784Z,77.14
2022-10-06T08:47:00.438Z,77.73
2022-10-06T08:49:34.662Z,77.86
2022-10-06T08:52:20.375Z,76.88
2022-10-06T08:54:58.867Z,76.68
2022-10-06T08:57:37.160Z,76.40
2022-10-06T09:00:18.041Z,75.06
2022-10-06T09:02:51.794Z,75.43
2022-10-06T09:05:25.437Z,76.26
2022-10-06T09:08:19.989Z,74.85
2022-10-06T09:11:06.491Z,74.96
2022-10-06T09:13:40.570Z,75.31
2022-10-06T09:16:15.284Z,75.49
2022-10-06T09:21:39.781Z,75.97
2022-10-06T09:24:15.546Z,74.80
2022-10-06T09:26:46.479Z,74.26
2022-10-06T09:29:15.223Z,74.42
2022-10-06T09:31:50.998Z,74.82
2022-10-06T09:34:28.444Z,76.17
2022-10-06T09:37:03.207Z,75.90
2022-10-06T09:39:36.545Z,74.18
2022-10-06T09:42:13.395Z,72.18
2022-10-06T09:44:55.155Z,70.35
2022-10-06T09:47:40.337Z,70.90
2022-10-06T09:50:23.901Z,70.08
2022-10-06T09:53:12.302Z,69.98
2022-10-06T09:55:52.140Z,71.06
2022-10-06T09:58:25.133Z,71.14
2022-10-06T10:00:56.431Z,70.37
2022-10-06T10:03:27.905Z,68.24
2022-10-06T10:05:56.746Z,68.77
2022-10-06T10:08:27.786Z,67.84
2022-10-06T10:11:38.367Z,66.40
2022-10-06T10:14:18.064Z,66.95
2022-10-06T10:16:52.352Z,65.99
2022-10-06T10:19:32.734Z,66.55
2022-10-06T10:22:01.044Z,66.65
2022-10-06T10:24:48.418Z,66.27
2022-10-06T10:27:23.883Z,67.64
2022-10-06T10:30:03.300Z,65.91
2022-10-06T10:32:57.082Z,64.30
2022-10-06T10:35:31.895Z,63.39
2022-10-06T10:38:03.012Z,64.16
2022-10-06T10:40:37.368Z,64.62
2022-10-06T10:43:22.546Z,65.66
2022-10-06T10:45:56.366Z,65.86
2022-10-06T10:48:33.122Z,65.17
2022-10-06T10:51:08.673Z,64.72
2022-10-06T10:53:47.306Z,64.57
2022-10-06T10:56:18.010Z,65.13
2022-10-06T10:58:50.468Z,64.65
2022-10-06T11:01:32.324Z,64.20
2022-10-06T11:04:02.261Z,63.72
2022-10-06T11:07:02.537Z,64.53
2022-10-06T11:09:40.004Z,63.95
2022-10-06T11:12:21.012Z,64.32
2022-10-06T11:14:59.549Z,62.82
2022-10-06T11:17:50.448Z,62.23
2022-10-06T11:20:41.685Z,62.53
2022-10-06T11:23:41.919Z,61.26
2022-10-06T11:26:38.180Z,60.17
2022-10-06T11:29:22.227Z,61.29
2022-10-06T11:32:06.208Z,61.43
2022-10-06T11:34:34.684Z,60.91
2022-10-06T11:37:17.309Z,60.93
2022-10-06T11:39:55.274Z,59.19
2022-10-06T11:42:30.824Z,60.25
2022-10-06T11:45:04.895Z,58.91
2022-10-06T11:47:40.009Z,56.08
2022-10-06T11:50:34.232Z,57.10
2022-10-06T11:53:02.791Z,56.69
2022-10-06T11:55:32.989Z,57.39
2022-10-06T12:01:03.109Z,56.62
2022-10-06T12:04:09.841Z,57.11
2022-10-06T12:07:03.986Z,58.03
2022-10-06T12:09:54.797Z,57.81
2022-10-06T12:13:06.585Z,57.82
2022-10-06T12:19:00.006Z,57.09
2022-10-06T12:21:47.113Z,58.58
2022-10-06T12:24:36.851Z,57.60
2022-10-06T12:27:39.583Z,58.74
2022-10-06T12:30:22.671Z,57.75
2022-10-06T12:32:54.729Z,57.28
2022-10-06T12:35:33.369Z,57.23
2022-10-06T12:38:05.429Z,58.89
2022-10-06T12:40:54.378Z,58.00
2022-10-06T12:43:36.276Z,57.06
2022-10-06T12:46:16.320Z,56.55
2022-10-06T12:48:56.872Z,57.78
2022-10-06T12:51:34.955Z,57.68
2022-10-06T12:54:15.209Z,56.94
2022-10-06T12:56:45.051Z,57.70
2022-10-06T12:59:24.296Z,57.66
2022-10-06T13:01:57.729Z,57.48
2022-10-06T13:04:36.088Z,55.72
2022-10-06T13:07:12.443Z,55.99
2022-10-06T13:09:40.773Z,56.43
2022-10-06T13:12:25.698Z,57.28
2022-10-06T13:15:19.404Z,57.81
2022-10-06T13:17:52.552Z,57.69
2022-10-06T13:20:39.225Z,57.97
2022-10-06T13:23:25.175Z,58.98
2022-10-06T13:25:59.763Z,57.96
2022-10-06T13:28:31.360Z,57.02
2022-10-06T13:33:43.631Z,58.07
2022-10-06T13:36:13.416Z,57.92
2022-10-06T13:38:43.078Z,57.14
2022-10-06T13:41:24.713Z,56.71
2022-10-06T13:43:57.256Z,55.74
2022-10-06T13:46:29.513Z,55.84
2022-10-06T13:49:04.255Z,54.15
2022-10-06T13:51:33.650Z,53.85
2022-10-06T13:54:08.073Z,53.16
2022-10-06T13:56:39.581Z,53.80
2022-10-06T13:59:33.983Z,52.10
2022-10-06T14:02:22.430Z,51.56
2022-10-06T14:05:29.337Z,51.31
2022-10-06T14:08:01.821Z,50.07
2022-10-06T14:10:35.872Z,48.98
2022-10-06T14:13:09.483Z,48.68
2022-10-06T14:15:47.843Z,48.35
2022-10-06T14:18:24.232Z,48.25
2022-10-06T14:20:55.504Z,47.16
2022-10-06T14:23:45.140Z,47.96
2022-10-06T14:26:15.425Z,46.76
2022-10-06T14:28:49.415Z,46.68
2022-10-06T14:31:17.953Z,46.81
2022-10-06T14:33:47.989Z,46.47
2022-10-06T14:36:22.213Z,46.88
2022-10-06T14:38:52.852Z,46.44
2022-10-06T14:41:24.807Z,46.17
2022-10-06T14:43:57.563Z,46.13
2022-10-06T14:46:26.772Z,45.86
2022-10-06T14:48:55.673Z,45.52
2022-10-06T14:51:27.057Z,46.18
2022-10-06T14:53:58.180Z,46.58
2022-10-06T14:56:29.083Z,45.81
2022-10-06T14:58:59.941Z,45.15
2022-10-06T15:01:29.886Z,44.94
2022-10-06T15:04:00.903Z,45.21
2022-10-06T15:06:48.324Z,45.10
2022-10-06T15:09:16.644Z,45.53
2022-10-06T15:11:45.288Z,45.04
2022-10-06T15:14:13.862Z,45.27
2022-10-06T15:16:44.400Z,45.68
2022-10-06T15:19:13.632Z,45.72
2022-10-06T15:21:45.973Z,45.60
2022-10-06T15:24:17.886Z,45.14
2022-10-06T15:27:05.751Z,46.30
2022-10-06T15:29:35.600Z,46.12
2022-10-06T15:32:06.477Z,45.32
2022-10-06T15:34:37.582Z,46.43
2022-10-06T15:37:07.711Z,45.39
2022-10-06T15:39:37.986Z,45.77
2022-10-06T15:42:08.647Z,45.35
2022-10-06T15:44:37.941Z,45.36
2022-10-06T15:47:07.677Z,46.73
2022-10-06T15:49:40.626Z,46.97
2022-10-06T15:52:13.003Z,46.87
2022-10-06T15:54:45.938Z,47.73
2022-10-06T15:57:20.295Z,46.24
2022-10-06T15:59:49.676Z,46.17
2022-10-06T16:02:19.992Z,46.15
2022-10-06T16:05:16.711Z,45.93
2022-10-06T16:07:46.329Z,46.23
2022-10-06T16:10:14.828Z,46.83
2022-10-06T16:12:43.111Z,46.07
2022-10-06T16:15:12.000Z,46.74
2022-10-06T16:17:40.352Z,47.08
2022-10-06T16:20:11.425Z,46.51
2022-10-06T16:22:40.037Z,46.36
2022-10-06T16:25:10.704Z,47.12
2022-10-06T16:27:39.498Z,47.19
2022-10-06T16:30:09.969Z,47.73
2022-10-06T16:32:38.527Z,48.28
2022-10-06T16:35:08.526Z,48.47
2022-10-06T16:37:36.927Z,48.74
2022-10-06T16:40:06.212Z,49.24
2022-10-06T16:42:36.159Z,49.51
2022-10-06T16:45:05.457Z,49.56
2022-10-06T16:47:33.740Z,49.93
2022-10-06T16:50:02.054Z,50.39
2022-10-06T16:52:30.586Z,50.66
2022-10-06T16:54:59.376Z,50.83
2022-10-06T16:57:27.642Z,51.20
2022-10-06T16:59:57.239Z,51.21
2022-10-06T17:02:25.549Z,51.54
2022-10-06T17:04:53.914Z,52.19
2022-10-06T17:07:22.274Z,51.97
2022-10-06T17:10:15.283Z,52.10
2022-10-06T17:12:39.137Z,52.27
2022-10-06T17:15:10.375Z,52.49
2022-10-06T17:17:38.952Z,52.62
2022-10-06T17:20:08.169Z,52.68
2022-10-06T17:22:36.843Z,53.05
2022-10-06T17:25:06.099Z,53.27
2022-10-06T17:27:39.627Z,53.56
2022-10-06T17:30:15.384Z,53.83
2022-10-06T17:32:44.483Z,54.18
2022-10-06T17:35:12.800Z,54.53
2022-10-06T17:37:41.203Z,54.15
2022-10-06T17:40:10.028Z,53.90
2022-10-06T17:42:38.737Z,53.98
2022-10-06T17:45:08.520Z,54.22
2022-10-06T17:47:38.712Z,54.08
2022-10-06T17:50:08.497Z,54.28
2022-10-06T17:52:39.229Z,54.65
2022-10-06T17:55:08.957Z,54.89
2022-10-06T17:57:37.304Z,54.97
2022-10-06T18:00:07.483Z,55.72
2022-10-06T18:02:41.689Z,55.52
2022-10-06T18:05:10.764Z,55.51
2022-10-06T18:07:39.884Z,55.51
2022-10-06T18:10:26.698Z,55.60
2022-10-06T18:12:55.141Z,56.15
2022-10-06T18:15:23.586Z,56.05
2022-10-06T18:17:53.277Z,56.07
2022-10-06T18:20:21.874Z,56.35
2022-10-06T18:22:50.266Z,56.78
2022-10-06T18:25:21.040Z,57.05
2022-10-06T18:27:53.033Z,57.27
2022-10-06T18:30:23.739Z,57.35
2022-10-06T18:36:06.786Z,57.52
2022-10-06T18:38:37.031Z,57.77
2022-10-06T18:41:09.038Z,57.75
2022-10-06T18:43:37.501Z,57.72
2022-10-06T18:46:25.427Z,57.82
2022-10-06T18:48:58.647Z,57.97
2022-10-06T18:51:32.280Z,58.01
2022-10-06T18:54:03.182Z,57.82
2022-10-06T18:56:35.053Z,58.29
2022-10-06T18:59:06.588Z,58.68
2022-10-06T19:01:35.420Z,59.02
2022-10-06T19:04:05.567Z,59.30
2022-10-06T19:06:34.379Z,59.16
2022-10-06T19:09:04.574Z,59.07
2022-10-06T19:11:46.239Z,59.43
2022-10-06T19:14:17.145Z,59.51
2022-10-06T19:16:46.052Z,59.91
2022-10-06T19:19:19.254Z,60.32
2022-10-06T19:21:50.136Z,60.48
2022-10-06T19:24:21.350Z,60.36
2022-10-06T19:26:52.311Z,60.23
2022-10-06T19:29:23.566Z,60.41
2022-10-06T19:31:55.361Z,60.70
2022-10-06T19:34:26.607Z,60.70
2022-10-06T19:36:57.926Z,61.00
2022-10-06T19:39:30.476Z,61.22
2022-10-06T19:42:17.298Z,61.27
2022-10-06T19:44:45.752Z,61.37
2022-10-06T19:47:16.220Z,61.37
2022-10-06T19:49:45.942Z,61.25
2022-10-06T19:52:14.557Z,61.50
2022-10-06T19:54:43.374Z,61.66
2022-10-06T19:57:12.343Z,61.82
2022-10-06T19:59:40.761Z,61.66
2022-10-06T20:02:10.123Z,61.98
2022-10-06T20:04:39.727Z,61.87
2022-10-06T20:07:09.621Z,61.97
2022-10-06T20:09:37.901Z,62.06
2022-10-06T20:12:06.796Z,62.22
2022-10-06T20:14:36.294Z,62.36
2022-10-06T20:17:04.688Z,62.60
2022-10-06T20:19:33.153Z,63.08
2022-10-06T20:22:01.399Z,63.33
2022-10-06T20:24:31.874Z,63.61
2022-10-06T20:27:00.161Z,63.73
2022-10-06T20:29:29.549Z,63.75
2022-10-06T20:31:59.226Z,64.15
2022-10-06T20:34:32.129Z,64.55
2022-10-06T20:37:02.459Z,64.48
2022-10-06T20:39:51.977Z,64.87
2022-10-06T20:42:21.554Z,64.96
2022-10-06T20:44:50.350Z,65.06
2022-10-06T20:47:18.598Z,65.35
2022-10-06T20:49:46.856Z,65.59
2022-10-06T20:52:15.191Z,65.82
2022-10-06T20:54:45.077Z,66.19
2022-10-06T20:57:13.526Z,66.64
2022-10-06T20:59:41.867Z,67.01
2022-10-06T21:02:11.577Z,67.48
2022-10-06T21:04:43.378Z,67.56
2022-10-06T21:07:11.872Z,68.00
2022-10-06T21:09:40.307Z,68.14
2022-10-06T21:12:10.050Z,68.52
2022-10-06T21:14:42.089Z,68.86
2022-10-06T21:17:10.639Z,68.98
2022-10-06T21:19:39.276Z,69.32
2022-10-06T21:22:07.821Z,69.48
2022-10-06T21:24:36.374Z,69.30
2022-10-06T21:27:05.142Z,69.50
2022-10-06T21:29:37.301Z,69.97
2022-10-06T21:32:05.723Z,69.98
2022-10-06T21:34:35.166Z,69.89
2022-10-06T21:37:03.441Z,70.05
2022-10-06T21:39:31.770Z,70.42
2022-10-06T21:42:00.216Z,70.59
2022-10-06T21:44:28.452Z,70.74
2022-10-06T21:47:02.437Z,71.14
2022-10-06T21:49:31.143Z,71.22
2022-10-06T21:52:03.634Z,71.42
2022-10-06T21:54:32.542Z,71.52
2022-10-06T21:57:00.978Z,71.77
2022-10-06T21:59:29.228Z,72.05
2022-10-06T22:01:59.593Z,72.20
2022-10-06T22:04:27.956Z,72.51
2022-10-06T22:06:56.316Z,72.79
2022-10-06T22:09:24.814Z,72.65
2022-10-06T22:11:53.199Z,72.69
2022-10-06T22:14:21.683Z,73.03
2022-10-06T22:16:50.263Z,73.27
2022-10-06T22:19:21.604Z,73.51
2022-10-06T22:21:50.371Z,73.45
2022-10-06T22:24:21.232Z,73.62
2022-10-06T22:26:50.759Z,73.99
2022-10-06T22:29:21.025Z,73.95
2022-10-06T22:31:49.908Z,74.23
2022-10-06T22:34:21.273Z,74.19
2022-10-06T22:36:49.601Z,74.00
2022-10-06T22:39:18.327Z,74.12
2022-10-06T22:41:47.214Z,74.43
2022-10-06T22:44:15.694Z,74.72
2022-10-06T22:46:44.191Z,74.30
2022-10-06T22:49:12.495Z,74.44
2022-10-06T22:51:42.372Z,74.55
2022-10-06T22:54:19.609Z,74.71
2022-10-06T22:56:47.995Z,74.60
2022-10-06T22:59:16.345Z,74.58
2022-10-06T23:01:44.671Z,74.75
2022-10-06T23:04:12.987Z,74.88
2022-10-06T23:06:42.626Z,74.86
2022-10-06T23:09:10.856Z,75.10
2022-10-06T23:11:39.163Z,75.20
2022-10-06T23:14:07.468Z,75.32
2022-10-06T23:16:35.801Z,75.40
2022-10-06T23:19:04.298Z,75.40
2022-10-06T23:21:33.116Z,75.45
2022-10-06T23:24:02.859Z,75.65
2022-10-06T23:26:33.609Z,75.77
2022-10-06T23:29:03.926Z,75.64
2022-10-06T23:31:32.638Z,75.61
2022-10-06T23:34:01.540Z,75.90
2022-10-06T23:36:30.043Z,76.10
2022-10-06T23:38:58.508Z,75.93
2022-10-06T23:41:28.149Z,75.71
2022-10-06T23:43:56.330Z,75.88
2022-10-06T23:46:24.847Z,75.69
2022-10-06T23:48:53.063Z,75.49
2022-10-06T23:51:21.444Z,75.49
2022-10-06T23:53:49.959Z,75.37
2022-10-06T23:56:19.015Z,75.36
2022-10-06T23:58:49.132Z,75.34
